Aviation Digital Data Service (ADDS)

Output produced by METARs form (2300 UTC 27 August 2014)
found at http://aviationweather.gov/adds/metars/
 
KCLT 272054Z 2721/2818 34007KT P6SM FEW250 
     FM272300 34003KT P6SM SKC 
     FM281300 28003KT P6SM FEW070